Time;durP1;ratioP1;P1;durP2;ratioP2;P2;SDS_P1;SDS_P2;PMS_P1;PMS_P2;Temp;Humidity;BMP_temperature;BMP_pressure;BME280_temperature;BME280_humidity;BME280_pressure;Samples;Min_cycle;Max_cycle;Signal;HPM_P1;HPM_P2
2023/02/07 00:00:14;;;;;;;63.93;26.30;;;-0.30;99.90;;;;;;5051902;28;20033;-53
2023/02/07 00:02:48;;;;;;;71.10;28.17;;;-0.40;99.90;;;;;;5051611;28;20033;-53
2023/02/07 00:05:15;;;;;;;70.87;28.20;;;-0.40;99.90;;;;;;5051351;28;20029;-54
2023/02/07 00:07:41;;;;;;;62.53;27.30;;;-0.40;99.90;;;;;;5051647;28;20079;-47
2023/02/07 00:10:07;;;;;;;78.33;28.70;;;-0.50;99.90;;;;;;5051282;28;20036;-53
2023/02/07 00:12:34;;;;;;;76.77;28.33;;;-0.50;99.90;;;;;;5051470;28;20397;-53
2023/02/07 00:15:00;;;;;;;74.87;27.87;;;-0.50;99.90;;;;;;5051233;28;20128;-54
2023/02/07 00:17:28;;;;;;;71.07;27.60;;;-0.50;99.90;;;;;;5051260;28;20117;-55
2023/02/07 00:19:54;;;;;;;75.03;28.43;;;-0.50;99.90;;;;;;5051223;28;20099;-52
2023/02/07 00:22:20;;;;;;;75.77;28.13;;;-0.50;99.90;;;;;;5050907;28;20036;-54
2023/02/07 00:24:45;;;;;;;72.17;27.40;;;-0.50;99.90;;;;;;5050845;28;20036;-52
2023/02/07 00:27:11;;;;;;;73.43;27.53;;;-0.50;99.90;;;;;;5050658;28;20025;-53
2023/02/07 00:29:37;;;;;;;71.03;27.13;;;-0.60;99.90;;;;;;5051021;28;20481;-54
2023/02/07 00:32:03;;;;;;;71.17;26.37;;;-0.60;99.90;;;;;;5050880;28;20065;-53
2023/02/07 00:34:30;;;;;;;69.70;27.17;;;-0.60;99.90;;;;;;5049463;28;20029;-54
2023/02/07 00:36:56;;;;;;;66.23;26.27;;;-0.60;99.90;;;;;;5050679;28;20108;-53
2023/02/07 00:39:22;;;;;;;73.23;26.53;;;-0.70;99.90;;;;;;5050682;28;20179;-53
2023/02/07 00:41:48;;;;;;;71.53;26.57;;;-0.70;99.90;;;;;;5050765;28;20036;-53
2023/02/07 00:44:14;;;;;;;75.50;27.90;;;-0.60;99.90;;;;;;5050542;28;20516;-55
2023/02/07 00:46:40;;;;;;;71.17;26.93;;;-0.60;99.90;;;;;;5050764;28;20041;-52
2023/02/07 00:49:06;;;;;;;78.10;27.60;;;-0.60;99.90;;;;;;5050736;28;20036;-53
2023/02/07 00:51:32;;;;;;;72.50;27.33;;;-0.60;99.90;;;;;;5050630;28;20036;-54
2023/02/07 00:53:59;;;;;;;71.40;27.30;;;-0.60;99.90;;;;;;5050197;28;20037;-55
2023/02/07 00:56:27;;;;;;;69.83;26.83;;;-0.60;99.90;;;;;;5050334;28;20025;-51
2023/02/07 00:58:52;;;;;;;71.00;27.37;;;-0.60;99.90;;;;;;5050597;28;20025;-52
2023/02/07 01:01:19;;;;;;;71.87;26.80;;;-0.60;99.90;;;;;;5050583;28;20051;-52
2023/02/07 01:03:45;;;;;;;75.60;25.17;;;-0.60;99.90;;;;;;5050277;28;20025;-53
2023/02/07 01:06:11;;;;;;;72.30;26.77;;;-0.50;99.90;;;;;;5050461;28;20086;-56
2023/02/07 01:08:39;;;;;;;75.50;26.60;;;-0.50;99.90;;;;;;5050183;28;20040;-53
2023/02/07 01:11:08;;;;;;;80.57;26.20;;;-0.50;99.90;;;;;;5049116;28;20029;-54
2023/02/07 01:13:37;;;;;;;71.27;26.37;;;-0.50;99.90;;;;;;5048811;28;20029;-52
2023/02/07 01:16:03;;;;;;;74.40;25.30;;;-0.50;99.90;;;;;;5050477;28;20111;-54
2023/02/07 01:18:29;;;;;;;64.97;24.77;;;-0.50;99.90;;;;;;5050182;28;20025;-54
2023/02/07 01:20:55;;;;;;;74.97;26.27;;;-0.50;99.90;;;;;;5050193;28;20037;-55
2023/02/07 01:23:21;;;;;;;70.63;24.93;;;-0.50;99.90;;;;;;5048709;28;20119;-54
2023/02/07 01:25:47;;;;;;;69.77;24.63;;;-0.50;99.90;;;;;;5050239;28;20155;-52
2023/02/07 01:28:13;;;;;;;71.47;24.00;;;-0.50;99.90;;;;;;5048748;28;20546;-55
2023/02/07 01:30:40;;;;;;;65.40;24.03;;;-0.60;99.90;;;;;;5050198;28;20033;-53
2023/02/07 01:33:07;;;;;;;60.80;23.03;;;-0.60;99.90;;;;;;5048888;28;20032;-53
2023/02/07 01:35:33;;;;;;;63.00;23.10;;;-0.60;99.90;;;;;;5049800;28;20516;-52
2023/02/07 01:38:01;;;;;;;69.50;24.97;;;-0.70;99.90;;;;;;5050430;28;20112;-53
2023/02/07 01:40:28;;;;;;;66.10;23.27;;;-0.70;99.90;;;;;;5054106;28;20053;-52
2023/02/07 01:42:54;;;;;;;69.90;24.53;;;-0.70;99.90;;;;;;5052749;28;20165;-53
2023/02/07 01:45:24;;;;;;;62.93;22.33;;;-0.70;99.90;;;;;;5052532;28;20102;-54
2023/02/07 01:47:53;;;;;;;73.63;24.98;;;-0.70;99.90;;;;;;5053904;28;20028;-50
2023/02/07 01:50:19;;;;;;;73.97;25.30;;;-0.70;99.90;;;;;;5053889;28;20032;-51
2023/02/07 01:52:45;;;;;;;70.07;23.20;;;-0.70;99.90;;;;;;5052390;28;20043;-54
2023/02/07 01:55:15;;;;;;;63.90;23.37;;;-0.70;99.90;;;;;;5053953;28;20017;-52
2023/02/07 01:57:42;;;;;;;76.03;23.37;;;-0.70;99.90;;;;;;5053700;28;20029;-51
2023/02/07 02:00:09;;;;;;;64.07;23.97;;;-0.80;99.90;;;;;;5052486;28;20393;-52
2023/02/07 02:02:41;;;;;;;74.30;24.60;;;-0.80;99.90;;;;;;5053633;28;20033;-53
2023/02/07 02:05:08;;;;;;;74.50;24.67;;;-0.80;99.90;;;;;;5035789;28;20052;-54
2023/02/07 02:07:35;;;;;;;73.47;24.03;;;-0.80;99.90;;;;;;5053415;28;20052;-53
2023/02/07 02:10:01;;;;;;;75.10;23.40;;;-0.80;99.90;;;;;;5052293;28;20059;-51
2023/02/07 02:12:29;;;;;;;70.77;24.53;;;-0.80;99.90;;;;;;5052223;28;20442;-52
2023/02/07 02:15:08;;;;;;;75.45;24.65;;;-0.80;99.90;;;;;;5053398;28;20024;-50
2023/02/07 02:17:55;;;;;;;71.18;23.55;;;-0.90;99.90;;;;;;5051968;28;20432;-52
2023/02/07 02:20:48;;;;;;;67.73;23.87;;;-0.90;99.90;;;;;;5053378;28;20025;-54
2023/02/07 02:23:19;;;;;;;69.47;23.70;;;-0.90;99.90;;;;;;5052045;28;20053;-52
2023/02/07 02:26:22;;;;;;;69.20;22.80;;;-0.90;99.90;;;;;;5052077;28;20087;-52
2023/02/07 02:29:21;;;;;;;63.47;21.67;;;-1.00;99.90;;;;;;5053221;28;20398;-51
2023/02/07 02:32:32;;;;;;;68.35;21.83;;;-1.00;99.90;;;;;;5053222;28;20025;-50
2023/02/07 02:35:07;;;;;;;63.73;21.20;;;-1.00;99.90;;;;;;5052887;28;20471;-53
2023/02/07 02:37:39;;;;;;;54.73;20.53;;;-1.00;99.90;;;;;;5052875;28;20033;-52
2023/02/07 02:40:21;;;;;;;69.90;22.23;;;-1.00;99.90;;;;;;5051806;28;20021;-55
2023/02/07 02:43:03;;;;;;;63.73;20.63;;;-1.10;99.90;;;;;;5051665;28;20489;-51
2023/02/07 02:45:39;;;;;;;62.63;21.50;;;-1.10;99.90;;;;;;5051529;28;20059;-55
2023/02/07 02:48:09;;;;;;;62.33;21.37;;;-1.10;99.90;;;;;;5050941;28;20025;-50
2023/02/07 02:50:35;;;;;;;60.47;20.52;;;-1.10;99.90;;;;;;5051453;28;20025;-55
2023/02/07 02:53:01;;;;;;;61.83;21.50;;;-1.10;99.90;;;;;;5052820;28;20032;-52
2023/02/07 02:55:53;;;;;;;64.75;21.70;;;-1.10;99.90;;;;;;5051217;28;20029;-55
2023/02/07 02:58:43;;;;;;;57.93;20.07;;;-1.10;99.90;;;;;;5051242;28;20037;-54
2023/02/07 03:01:25;;;;;;;55.95;18.70;;;-1.20;99.90;;;;;;5052636;28;20029;-52
2023/02/07 03:04:00;;;;;;;54.03;19.80;;;-1.20;99.90;;;;;;5051006;28;20063;-50
2023/02/07 03:06:48;;;;;;;57.67;18.97;;;-1.20;99.90;;;;;;5050992;28;20028;-53
2023/02/07 03:09:20;;;;;;;42.85;15.93;;;-1.30;99.90;;;;;;5051278;28;20033;-52
2023/02/07 03:12:04;;;;;;;55.37;18.87;;;-1.30;99.90;;;;;;5052380;28;20029;-50
2023/02/07 03:14:43;;;;;;;50.90;18.77;;;-1.30;99.90;;;;;;5051011;28;20452;-55
2023/02/07 03:17:27;;;;;;;55.83;19.10;;;-1.30;99.90;;;;;;5052198;28;20032;-51
2023/02/07 03:20:05;;;;;;;51.00;18.67;;;-1.40;99.90;;;;;;5050911;28;20511;-51
2023/02/07 03:22:33;;;;;;;53.00;18.80;;;-1.40;99.90;;;;;;5050956;28;20033;-50
2023/02/07 03:25:01;;;;;;;53.93;18.80;;;-1.40;99.90;;;;;;5050710;28;20112;-51
2023/02/07 03:27:30;;;;;;;57.10;19.20;;;-1.40;99.90;;;;;;5050797;28;20024;-51
2023/02/07 03:29:59;;;;;;;53.03;18.57;;;-1.40;99.90;;;;;;5052049;28;20571;-52
2023/02/07 03:32:30;;;;;;;58.30;18.90;;;-1.40;99.90;;;;;;5052224;28;20032;-49
2023/02/07 03:35:09;;;;;;;53.40;17.57;;;-1.40;99.90;;;;;;5051809;28;20090;-51
2023/02/07 03:37:41;;;;;;;54.53;18.88;;;-1.40;99.90;;;;;;5051776;28;20040;-51
2023/02/07 03:40:08;;;;;;;56.17;18.73;;;-1.40;99.90;;;;;;5052005;28;20107;-50
2023/02/07 03:42:42;;;;;;;52.70;18.83;;;-1.40;99.90;;;;;;5051837;28;20029;-52
2023/02/07 03:45:13;;;;;;;49.30;17.37;;;-1.40;99.90;;;;;;5051639;28;20029;-49
2023/02/07 03:47:38;;;;;;;50.20;18.57;;;-1.50;99.90;;;;;;5051657;28;20330;-51
2023/02/07 03:50:04;;;;;;;52.70;18.43;;;-1.50;99.90;;;;;;5051640;28;20485;-52
2023/02/07 03:52:30;;;;;;;53.70;18.23;;;-1.40;99.90;;;;;;5051583;28;20531;-51
2023/02/07 03:54:56;;;;;;;51.30;18.50;;;-1.50;99.90;;;;;;5051494;28;20032;-50
2023/02/07 03:57:22;;;;;;;56.23;18.33;;;-1.50;99.90;;;;;;5051796;28;20057;-53
2023/02/07 03:59:47;;;;;;;52.03;18.23;;;-1.50;99.90;;;;;;5050905;28;20445;-53
2023/02/07 04:02:13;;;;;;;48.57;17.73;;;-1.50;99.90;;;;;;5051333;28;20025;-52
2023/02/07 04:04:39;;;;;;;51.93;18.10;;;-1.60;99.90;;;;;;5051335;28;20064;-55
2023/02/07 04:07:05;;;;;;;50.33;16.97;;;-1.60;99.90;;;;;;5051200;28;20039;-48
2023/02/07 04:09:31;;;;;;;48.93;17.37;;;-1.60;99.90;;;;;;5051479;28;20074;-53
2023/02/07 04:11:57;;;;;;;52.03;17.50;;;-1.60;99.90;;;;;;5051533;28;20036;-52
2023/02/07 04:14:22;;;;;;;43.90;16.20;;;-1.60;99.90;;;;;;5051631;28;20386;-51
2023/02/07 04:16:49;;;;;;;44.57;17.03;;;-1.60;99.90;;;;;;5051771;28;20025;-51
2023/02/07 04:19:15;;;;;;;44.83;17.20;;;-1.60;99.90;;;;;;5051232;28;20033;-53
2023/02/07 04:21:42;;;;;;;45.53;15.60;;;-1.60;99.90;;;;;;5051178;28;20112;-54
2023/02/07 04:24:08;;;;;;;47.23;17.10;;;-1.60;99.90;;;;;;5050984;28;20159;-51
2023/02/07 04:26:33;;;;;;;44.63;17.27;;;-1.60;99.90;;;;;;5050819;28;20508;-51
2023/02/07 04:28:59;;;;;;;43.90;17.17;;;-1.60;99.90;;;;;;5051129;28;20112;-52
2023/02/07 04:31:25;;;;;;;43.13;16.87;;;-1.60;99.90;;;;;;5051163;28;20489;-53
2023/02/07 04:33:51;;;;;;;38.07;15.60;;;-1.60;99.90;;;;;;5050774;28;20033;-53
2023/02/07 04:36:16;;;;;;;43.73;16.03;;;-1.60;99.90;;;;;;5050815;28;20163;-52
2023/02/07 04:38:42;;;;;;;39.90;15.13;;;-1.60;99.90;;;;;;5050818;28;20032;-53
2023/02/07 04:41:08;;;;;;;40.13;15.33;;;-1.60;99.90;;;;;;5050839;28;20435;-52
2023/02/07 04:43:35;;;;;;;40.53;14.70;;;-1.60;99.90;;;;;;5050787;28;20025;-53
2023/02/07 04:46:04;;;;;;;37.50;15.33;;;-1.60;99.90;;;;;;5050819;28;20029;-54
2023/02/07 04:48:30;;;;;;;37.20;14.37;;;-1.60;99.90;;;;;;5050580;28;20500;-50
2023/02/07 04:50:56;;;;;;;37.10;15.03;;;-1.60;99.90;;;;;;5050643;28;20458;-55
2023/02/07 04:53:21;;;;;;;39.40;15.07;;;-1.60;99.90;;;;;;5050284;28;20033;-53
2023/02/07 04:55:51;;;;;;;41.80;15.57;;;-1.60;99.90;;;;;;5050437;28;20033;-52
2023/02/07 04:58:17;;;;;;;35.63;14.70;;;-1.60;99.90;;;;;;5050637;28;20029;-53
2023/02/07 05:00:44;;;;;;;36.83;14.43;;;-1.60;99.90;;;;;;5050654;28;20037;-52
2023/02/07 05:03:10;;;;;;;34.40;14.40;;;-1.60;99.90;;;;;;5050479;28;20444;-51
2023/02/07 05:05:41;;;;;;;37.13;14.57;;;-1.60;99.90;;;;;;5050382;28;20025;-53
2023/02/07 05:08:08;;;;;;;37.07;15.83;;;-1.70;99.90;;;;;;5050120;28;20390;-54
2023/02/07 05:10:34;;;;;;;38.60;14.27;;;-1.70;99.90;;;;;;5050416;28;20466;-55
2023/02/07 05:13:00;;;;;;;54.53;18.60;;;-1.70;99.90;;;;;;5050124;28;20581;-53
2023/02/07 05:15:26;;;;;;;37.93;15.23;;;-1.70;99.90;;;;;;5050166;28;20112;-51
2023/02/07 05:17:52;;;;;;;36.00;14.50;;;-1.80;99.90;;;;;;5050237;28;20436;-52
2023/02/07 05:20:18;;;;;;;34.60;14.37;;;-1.80;99.90;;;;;;5050330;28;20074;-54
2023/02/07 05:22:44;;;;;;;33.97;14.23;;;-1.80;99.90;;;;;;5050264;28;20116;-54
2023/02/07 05:25:10;;;;;;;33.63;14.13;;;-1.70;99.90;;;;;;5050427;28;20108;-53
2023/02/07 05:27:36;;;;;;;37.73;14.90;;;-1.80;99.90;;;;;;5050399;28;20028;-51
2023/02/07 05:30:02;;;;;;;33.83;14.50;;;-1.80;99.90;;;;;;5050296;28;20055;-54
2023/02/07 05:35:13;;;;;;;32.97;14.20;;;-1.90;99.90;;;;;;5049987;28;20275;-54
2023/02/07 05:37:38;;;;;;;35.13;14.70;;;-1.80;99.90;;;;;;5050133;28;20029;-53
2023/02/07 05:40:04;;;;;;;32.50;13.80;;;-1.80;99.90;;;;;;5050352;28;20385;-52
2023/02/07 05:42:30;;;;;;;37.53;15.70;;;-1.90;99.90;;;;;;5050215;28;20120;-55
2023/02/07 05:44:56;;;;;;;46.13;18.60;;;-1.80;99.90;;;;;;5050275;28;20175;-54
2023/02/07 05:47:21;;;;;;;54.73;19.37;;;-1.80;99.90;;;;;;5050072;28;20025;-53
2023/02/07 05:49:47;;;;;;;47.87;17.37;;;-1.90;99.90;;;;;;5050001;28;20036;-55
2023/02/07 05:52:13;;;;;;;57.30;19.73;;;-1.90;99.90;;;;;;5050147;28;20032;-52
2023/02/07 05:54:38;;;;;;;49.07;18.53;;;-1.90;99.90;;;;;;5050100;28;20497;-52
2023/02/07 05:57:04;;;;;;;57.17;20.70;;;-2.00;99.90;;;;;;5049953;28;20071;-53
2023/02/07 05:59:30;;;;;;;59.43;20.70;;;-2.00;99.90;;;;;;5050190;28;20039;-51
2023/02/07 06:01:55;;;;;;;53.20;19.90;;;-2.00;99.90;;;;;;5050088;28;20029;-55
2023/02/07 06:04:21;;;;;;;59.90;20.67;;;-2.10;99.90;;;;;;5049876;28;20031;-54
2023/02/07 06:06:47;;;;;;;55.20;19.83;;;-2.10;99.90;;;;;;5050060;28;20028;-54
2023/02/07 06:09:13;;;;;;;59.60;20.87;;;-2.10;99.90;;;;;;5050178;28;20037;-51
2023/02/07 06:11:38;;;;;;;56.60;19.90;;;-2.20;99.90;;;;;;5050148;28;20075;-52
2023/02/07 06:14:04;;;;;;;57.43;20.17;;;-2.10;99.90;;;;;;5050015;28;20036;-50
2023/02/07 06:16:30;;;;;;;58.37;20.73;;;-2.20;99.90;;;;;;5049965;28;20492;-52
2023/02/07 06:18:55;;;;;;;62.50;21.30;;;-2.20;99.90;;;;;;5050115;28;20071;-52
2023/02/07 06:21:21;;;;;;;65.20;21.60;;;-2.20;99.90;;;;;;5050226;28;20044;-50
2023/02/07 06:23:48;;;;;;;66.47;21.20;;;-2.20;99.90;;;;;;5051139;28;20025;-52
2023/02/07 06:26:14;;;;;;;66.17;21.50;;;-2.20;99.90;;;;;;5053773;28;20031;-54
2023/02/07 06:28:40;;;;;;;70.53;22.03;;;-2.20;99.90;;;;;;5053502;28;20029;-54
2023/02/07 06:31:05;;;;;;;62.20;20.37;;;-2.20;99.90;;;;;;5053602;28;20067;-53
2023/02/07 06:33:31;;;;;;;66.97;22.50;;;-2.10;99.90;;;;;;5053279;28;20035;-50
2023/02/07 06:35:57;;;;;;;70.10;22.30;;;-2.10;99.90;;;;;;5053721;28;20439;-53
2023/02/07 06:38:23;;;;;;;65.77;21.53;;;-2.10;99.90;;;;;;5053532;28;20029;-51
2023/02/07 06:40:49;;;;;;;75.37;23.63;;;-2.20;99.90;;;;;;5053470;28;20029;-53
2023/02/07 06:43:14;;;;;;;74.30;23.10;;;-2.10;99.90;;;;;;5053357;28;20490;-51
2023/02/07 06:45:40;;;;;;;71.30;22.53;;;-2.10;99.90;;;;;;5053223;28;20028;-51
2023/02/07 06:48:07;;;;;;;66.70;22.00;;;-2.10;99.90;;;;;;5053041;28;20033;-53
2023/02/07 06:50:33;;;;;;;84.67;23.73;;;-2.10;99.90;;;;;;5053479;28;20112;-54
2023/02/07 06:53:00;;;;;;;78.00;23.43;;;-2.10;99.90;;;;;;5052969;28;20132;-52
2023/02/07 06:55:37;;;;;;;78.90;23.00;;;-2.20;99.90;;;;;;5053442;28;20389;-53
2023/02/07 06:58:04;;;;;;;80.00;23.90;;;-2.20;99.90;;;;;;5052884;28;20039;-56
2023/02/07 07:00:30;;;;;;;72.53;22.27;;;-2.20;99.90;;;;;;5052999;28;20029;-50
2023/02/07 07:02:56;;;;;;;78.93;23.13;;;-2.20;99.90;;;;;;5053177;28;20057;-50
2023/02/07 07:05:21;;;;;;;77.43;22.40;;;-2.20;99.90;;;;;;5052864;28;20524;-54
2023/02/07 07:07:48;;;;;;;80.83;24.60;;;-2.20;99.90;;;;;;5052720;28;20040;-51
2023/02/07 07:10:13;;;;;;;77.47;23.90;;;-2.20;99.90;;;;;;5052819;28;20370;-53
2023/02/07 07:12:39;;;;;;;84.60;22.90;;;-2.20;99.90;;;;;;5052596;28;20044;-53
2023/02/07 07:15:05;;;;;;;77.60;21.27;;;-2.20;99.90;;;;;;5052468;28;20047;-52
2023/02/07 07:17:31;;;;;;;72.70;22.43;;;-2.10;99.90;;;;;;5052447;28;20079;-54
2023/02/07 07:19:58;;;;;;;67.13;20.60;;;-2.10;99.90;;;;;;5052619;28;20064;-55
2023/02/07 07:22:24;;;;;;;53.13;18.90;;;-2.00;99.90;;;;;;5052753;28;20025;-55
2023/02/07 07:24:50;;;;;;;57.43;19.00;;;-1.90;99.90;;;;;;5052390;28;20079;-54
2023/02/07 07:27:16;;;;;;;48.80;18.17;;;-1.90;99.90;;;;;;5052191;28;20452;-52
2023/02/07 07:29:42;;;;;;;51.83;18.00;;;-1.80;99.90;;;;;;5052246;28;20029;-53
2023/02/07 07:32:10;;;;;;;46.30;16.57;;;-1.70;99.90;;;;;;5052345;28;20032;-51
2023/02/07 07:34:36;;;;;;;43.57;17.20;;;-1.70;99.90;;;;;;5052197;28;20020;-54
2023/02/07 07:37:02;;;;;;;38.60;16.20;;;-1.60;99.90;;;;;;5052207;28;20029;-53
2023/02/07 07:39:28;;;;;;;36.87;15.77;;;-1.60;99.90;;;;;;5052165;28;20020;-55
2023/02/07 07:41:54;;;;;;;37.00;14.73;;;-1.50;99.90;;;;;;5052091;28;20044;-50
2023/02/07 07:44:35;;;;;;;38.73;14.70;;;-1.40;99.90;;;;;;5036158;28;20032;-52
2023/02/07 07:47:01;;;;;;;38.50;14.23;;;-1.30;99.90;;;;;;5051980;28;20029;-54
2023/02/07 07:49:27;;;;;;;32.67;13.20;;;-1.30;99.90;;;;;;5052189;28;20371;-53
2023/02/07 07:51:52;;;;;;;32.57;13.83;;;-1.20;99.90;;;;;;5051776;28;20400;-50
2023/02/07 07:54:18;;;;;;;31.97;13.77;;;-1.20;99.90;;;;;;5051558;28;20037;-53
2023/02/07 07:56:44;;;;;;;36.47;13.70;;;-1.20;99.90;;;;;;5051492;28;20322;-50
2023/02/07 07:59:10;;;;;;;32.40;13.60;;;-1.10;99.90;;;;;;5051794;28;20508;-54
2023/02/07 08:01:35;;;;;;;32.67;14.03;;;-1.10;99.90;;;;;;5051963;28;20083;-50
2023/02/07 08:04:02;;;;;;;32.43;13.20;;;-1.00;99.90;;;;;;5051568;28;20032;-54
2023/02/07 08:06:29;;;;;;;32.13;13.33;;;-0.90;99.90;;;;;;5051461;28;20029;-54
2023/02/07 08:08:55;;;;;;;25.47;12.57;;;-0.90;99.90;;;;;;5050320;28;20033;-53
2023/02/07 08:11:21;;;;;;;29.40;13.10;;;-0.80;99.90;;;;;;5051248;28;20036;-52
2023/02/07 08:13:48;;;;;;;29.03;12.83;;;-0.80;99.90;;;;;;5051381;28;20489;-53
2023/02/07 08:16:14;;;;;;;28.90;12.10;;;-0.80;99.90;;;;;;5051120;28;20033;-54
2023/02/07 08:18:39;;;;;;;24.30;11.47;;;-0.70;99.90;;;;;;5051144;28;20033;-53
2023/02/07 08:21:06;;;;;;;26.17;11.77;;;-0.60;99.90;;;;;;5051337;28;20286;-51
2023/02/07 08:23:32;;;;;;;21.13;10.23;;;-0.60;99.90;;;;;;5051099;28;20324;-55
2023/02/07 08:25:58;;;;;;;24.27;10.33;;;-0.50;99.90;;;;;;5050954;28;20021;-51
2023/02/07 08:28:24;;;;;;;22.90;10.90;;;-0.40;99.90;;;;;;5050786;28;20037;-54
2023/02/07 08:30:50;;;;;;;19.60;9.23;;;-0.30;99.90;;;;;;5050982;28;20039;-52
2023/02/07 08:33:16;;;;;;;25.07;10.20;;;-0.10;99.90;;;;;;5050835;28;20115;-53
2023/02/07 08:35:42;;;;;;;19.83;10.23;;;-0.10;99.90;;;;;;5050710;28;20029;-50
2023/02/07 08:38:07;;;;;;;20.00;9.60;;;0.00;99.90;;;;;;5050675;28;20025;-53
2023/02/07 08:40:34;;;;;;;22.40;10.23;;;0.10;99.90;;;;;;5050728;28;20367;-54
2023/02/07 08:43:01;;;;;;;20.83;9.53;;;0.10;99.90;;;;;;5051109;28;20192;-53
2023/02/07 08:45:26;;;;;;;18.47;8.87;;;0.20;99.90;;;;;;5050607;28;20037;-51
2023/02/07 08:47:52;;;;;;;20.30;8.83;;;0.30;99.90;;;;;;5050043;28;20056;-53
2023/02/07 08:50:18;;;;;;;20.80;10.83;;;0.50;99.90;;;;;;5050385;28;20112;-50
2023/02/07 08:52:44;;;;;;;17.33;8.70;;;0.70;99.90;;;;;;5050294;28;20081;-51
2023/02/07 08:55:10;;;;;;;18.07;8.00;;;0.90;99.90;;;;;;5049916;28;20029;-52
2023/02/07 08:57:37;;;;;;;18.00;8.73;;;1.10;99.90;;;;;;5050002;28;20391;-51
2023/02/07 09:00:05;;;;;;;16.70;7.80;;;1.40;99.90;;;;;;5050489;28;20090;-52
2023/02/07 09:02:32;;;;;;;14.02;7.43;;;1.70;99.90;;;;;;5050357;28;20084;-52
2023/02/07 09:04:57;;;;;;;13.20;6.97;;;2.00;99.90;;;;;;5050023;28;20033;-53
2023/02/07 09:07:23;;;;;;;11.77;6.93;;;2.40;99.90;;;;;;5050092;28;20033;-50
2023/02/07 09:09:49;;;;;;;14.63;6.83;;;2.60;99.90;;;;;;5050105;28;20075;-52
2023/02/07 09:12:15;;;;;;;14.30;7.50;;;2.90;99.90;;;;;;5050057;28;20025;-52
2023/02/07 09:14:40;;;;;;;13.43;7.10;;;3.20;99.90;;;;;;5050249;28;20112;-53
2023/02/07 09:17:06;;;;;;;15.77;6.83;;;4.10;99.90;;;;;;5050011;28;20370;-53
2023/02/07 09:19:34;;;;;;;12.27;6.73;;;4.20;99.90;;;;;;5050179;28;20024;-52
2023/02/07 09:22:00;;;;;;;11.70;6.50;;;4.80;99.90;;;;;;5050205;28;20492;-52
2023/02/07 09:24:26;;;;;;;11.63;5.93;;;5.40;99.90;;;;;;5050083;28;20059;-53
2023/02/07 09:26:51;;;;;;;15.20;6.87;;;6.30;99.90;;;;;;5050364;28;20033;-52
2023/02/07 09:29:17;;;;;;;11.87;6.10;;;6.40;99.90;;;;;;5048946;28;20553;-53
2023/02/07 09:31:43;;;;;;;8.47;5.47;;;7.00;99.90;;;;;;5050301;28;20120;-54
2023/02/07 09:34:09;;;;;;;11.52;5.65;;;7.30;99.90;;;;;;5049933;28;20044;-53
2023/02/07 09:36:35;;;;;;;6.80;4.90;;;7.70;99.90;;;;;;5049993;28;20033;-53
2023/02/07 09:39:01;;;;;;;6.57;4.80;;;8.30;99.90;;;;;;5050127;28;20543;-53
2023/02/07 09:41:51;;;;;;;9.65;4.78;;;8.90;96.40;;;;;;5050063;28;20367;-53
2023/02/07 09:44:27;;;;;;;7.70;4.47;;;8.90;94.70;;;;;;5050006;28;20075;-53
2023/02/07 09:47:08;;;;;;;8.45;4.50;;;9.70;93.40;;;;;;5049877;28;20083;-53
2023/02/07 09:49:47;;;;;;;7.03;4.80;;;9.40;91.40;;;;;;5050150;28;20029;-52
2023/02/07 09:55:29;;;;;;;7.93;5.20;;;10.20;90.60;;;;;;5008088;28;19927;-53
2023/02/07 09:58:17;;;;;;;7.45;5.10;;;9.90;91.70;;;;;;5010308;28;20053;-53
2023/02/07 10:00:45;;;;;;;7.25;4.85;;;9.60;92.60;;;;;;5014234;28;20026;-52
2023/02/07 10:03:23;;;;;;;6.85;4.97;;;9.70;90.70;;;;;;5014116;28;20054;-53
2023/02/07 10:06:03;;;;;;;8.27;4.95;;;9.10;91.90;;;;;;5014276;28;20030;-52
2023/02/07 10:08:29;;;;;;;6.78;4.47;;;10.10;91.10;;;;;;5013741;28;20558;-51
2023/02/07 10:11:13;;;;;;;8.85;5.10;;;10.50;86.70;;;;;;5013804;28;20045;-51
2023/02/07 10:13:57;;;;;;;6.85;4.57;;;9.50;90.10;;;;;;5013772;28;20540;-54
2023/02/07 10:16:35;;;;;;;7.75;4.65;;;10.20;86.50;;;;;;5013548;28;20038;-52
2023/02/07 10:19:26;;;;;;;7.32;4.60;;;11.20;84.00;;;;;;5013857;28;20026;-53
2023/02/07 10:21:55;;;;;;;6.25;4.70;;;11.60;80.10;;;;;;5007228;28;20037;-53
2023/02/07 10:24:38;;;;;;;7.88;4.78;;;10.80;83.20;;;;;;5013274;28;20022;-55
2023/02/07 10:27:11;;;;;;;7.10;4.57;;;10.30;82.90;;;;;;5013317;28;20042;-52
2023/02/07 10:30:02;;;;;;;5.28;3.97;;;10.50;80.40;;;;;;5013544;28;20037;-54
2023/02/07 10:32:32;;;;;;;8.68;5.22;;;12.20;75.90;;;;;;5013498;28;20038;-51
2023/02/07 10:35:02;;;;;;;6.63;4.80;;;12.60;76.70;;;;;;5013391;28;20034;-55
2023/02/07 10:37:34;;;;;;;6.22;4.47;;;13.20;71.30;;;;;;5013318;28;20037;-49
2023/02/07 10:40:14;;;;;;;5.82;4.57;;;13.80;66.20;;;;;;5013290;28;20164;-54
2023/02/07 10:42:42;;;;;;;6.95;5.00;;;13.80;67.10;;;;;;5013274;28;20435;-52
2023/02/07 10:45:13;;;;;;;7.70;4.50;;;13.60;66.50;;;;;;5013215;28;20306;-53
2023/02/07 10:47:40;;;;;;;7.57;4.85;;;14.20;66.50;;;;;;5013424;28;20038;-54
2023/02/07 10:50:12;;;;;;;8.82;5.70;;;15.10;64.10;;;;;;5013390;28;20403;-54
2023/02/07 10:52:42;;;;;;;6.88;4.63;;;15.00;64.70;;;;;;5012931;28;20104;-53
2023/02/07 10:55:10;;;;;;;6.05;4.57;;;15.60;61.60;;;;;;5012998;28;20171;-54
2023/02/07 10:57:36;;;;;;;6.72;4.60;;;16.00;60.60;;;;;;5012739;28;20053;-54
2023/02/07 11:00:25;;;;;;;5.20;4.07;;;16.50;58.30;;;;;;5012997;28;20115;-54
2023/02/07 11:03:05;;;;;;;10.00;5.15;;;16.80;59.40;;;;;;5012853;28;20487;-54
2023/02/07 11:05:40;;;;;;;7.88;4.75;;;17.20;57.30;;;;;;5012858;28;20105;-55
2023/02/07 11:08:14;;;;;;;6.55;4.80;;;17.50;54.80;;;;;;5012562;28;20026;-53
2023/02/07 11:10:43;;;;;;;6.35;5.15;;;16.20;55.00;;;;;;5012759;28;20323;-49
2023/02/07 11:13:20;;;;;;;6.45;5.40;;;14.70;58.80;;;;;;5012862;28;20029;-51
2023/02/07 11:15:48;;;;;;;8.13;4.78;;;12.80;62.60;;;;;;5013181;28;20045;-51
2023/02/07 11:18:39;;;;;;;6.20;4.85;;;12.30;67.50;;;;;;5012488;28;20022;-52
2023/02/07 11:21:23;;;;;;;6.13;4.60;;;14.10;64.40;;;;;;5012753;28;20026;-53
2023/02/07 11:23:50;;;;;;;7.40;5.05;;;13.50;64.90;;;;;;5012334;28;20034;-53
2023/02/07 11:26:19;;;;;;;6.38;4.60;;;14.00;61.10;;;;;;5012222;28;20037;-52
2023/02/07 11:28:45;;;;;;;7.13;4.65;;;13.40;61.50;;;;;;5012150;28;20109;-55
2023/02/07 11:31:15;;;;;;;6.55;4.93;;;12.60;64.40;;;;;;5012634;28;20648;-55
2023/02/07 11:33:41;;;;;;;6.85;4.93;;;11.90;65.70;;;;;;5012018;28;20034;-54
2023/02/07 11:36:15;;;;;;;6.80;4.50;;;11.40;68.00;;;;;;5012042;28;20030;-54
2023/02/07 11:38:52;;;;;;;8.35;4.63;;;12.10;64.20;;;;;;5011876;28;20025;-51
2023/02/07 11:41:23;;;;;;;6.85;4.90;;;12.20;67.00;;;;;;5011959;28;20026;-54
2023/02/07 11:44:23;;;;;;;5.95;4.57;;;12.40;65.70;;;;;;5011827;28;20064;-52
2023/02/07 11:46:49;;;;;;;7.38;5.05;;;13.00;62.50;;;;;;4989491;28;20042;-51
2023/02/07 11:49:25;;;;;;;6.85;4.70;;;12.10;62.80;;;;;;5011779;28;20038;-52
2023/02/07 11:51:58;;;;;;;6.97;4.63;;;12.40;65.70;;;;;;5011714;28;20025;-51
2023/02/07 11:54:25;;;;;;;7.22;5.22;;;13.70;61.10;;;;;;5011362;28;20045;-55
2023/02/07 11:56:59;;;;;;;6.13;4.63;;;12.50;63.70;;;;;;5011493;28;20475;-55
2023/02/07 11:59:31;;;;;;;7.75;4.72;;;11.50;64.50;;;;;;5011663;28;20026;-53
2023/02/07 12:02:00;;;;;;;6.57;4.80;;;10.80;67.60;;;;;;5010464;28;20044;-51
2023/02/07 12:04:31;;;;;;;7.15;5.20;;;9.90;70.00;;;;;;5011300;28;20025;-49
2023/02/07 12:07:25;;;;;;;6.60;5.10;;;10.00;69.30;;;;;;5011401;28;20037;-53
2023/02/07 12:10:01;;;;;;;8.38;5.32;;;9.90;69.20;;;;;;5011425;28;20029;-53
2023/02/07 12:12:38;;;;;;;6.70;4.63;;;10.70;68.20;;;;;;5011340;28;20038;-51
2023/02/07 12:15:12;;;;;;;6.40;4.72;;;12.00;66.00;;;;;;5011434;28;20315;-55
2023/02/07 12:17:41;;;;;;;8.88;5.35;;;12.40;62.60;;;;;;5010976;28;20045;-53
2023/02/07 12:20:20;;;;;;;6.45;4.35;;;12.90;61.80;;;;;;5009996;28;20033;-50
2023/02/07 12:23:01;;;;;;;6.65;4.70;;;12.40;61.10;;;;;;5010617;28;20022;-49
2023/02/07 12:25:35;;;;;;;6.80;4.40;;;11.20;62.10;;;;;;5011282;28;20041;-54
2023/02/07 12:28:12;;;;;;;10.05;4.50;;;10.40;65.40;;;;;;5011140;28;20030;-53
2023/02/07 12:30:44;;;;;;;6.43;4.45;;;10.20;68.60;;;;;;5011054;28;20045;-53
2023/02/07 12:33:33;;;;;;;6.90;4.60;;;10.60;65.90;;;;;;5009706;28;20038;-52
2023/02/07 12:35:58;;;;;;;;;;;11.10;65.60;;;;;;5011567;28;20057;-53
2023/02/07 12:38:29;;;;;;;6.45;4.10;;;11.60;61.70;;;;;;5010711;28;20310;-50
2023/02/07 12:41:04;;;;;;;7.18;5.07;;;11.90;60.10;;;;;;5010994;28;20026;-53
2023/02/07 12:43:40;;;;;;;8.25;5.13;;;11.60;62.00;;;;;;5010793;28;20030;-54
2023/02/07 12:46:30;;;;;;;6.45;4.30;;;11.70;61.60;;;;;;5011164;28;20554;-50
2023/02/07 12:49:33;;;;;;;6.90;4.05;;;11.90;60.80;;;;;;5011009;28;20030;-49
2023/02/07 12:52:33;;;;;;;6.03;4.38;;;12.60;59.80;;;;;;5010941;28;20026;-53